Terminal Aerodrome Forecast
Issued by NWS

Home | Current Version | Previous Version | Text Only | Print | Product List | Glossary On
Versions: 1 2 3 4 5 6 7 8 9 10 11 12 13 14 15 16
000
FTUS42 KILM 012005 AAA
TAFCRE
TAF AMD
KCRE 012005Z 0120/0218 20010KT P6SM SCT100
     FM012100 19009KT P6SM SCT080
     FM020400 24003KT P6SM FEW080
      TEMPO 0207/0210 3SM BR
     FM021400 05007KT P6SM FEW020 SCT080=

USA.gov is the U.S. government's official web portal to all federal, state and local government web resources and services.